sensor_id;sensor_type;location;lat;lon;timestamp;temperature;humidity
13123;DHT22;6627;50.920;12.050;2024-01-11T00:01:36;-10.10;99.90
13123;DHT22;6627;50.920;12.050;2024-01-11T00:04:04;-10.20;99.90
13123;DHT22;6627;50.920;12.050;2024-01-11T00:06:40;-10.30;99.90
13123;DHT22;6627;50.920;12.050;2024-01-11T00:09:09;-10.30;99.90
13123;DHT22;6627;50.920;12.050;2024-01-11T00:11:40;-10.30;99.90
13123;DHT22;6627;50.920;12.050;2024-01-11T00:14:08;-10.30;99.90
13123;DHT22;6627;50.920;12.050;2024-01-11T00:16:51;-10.30;99.90
13123;DHT22;6627;50.920;12.050;2024-01-11T00:19:21;-10.30;99.90
13123;DHT22;6627;50.920;12.050;2024-01-11T00:21:49;-10.10;99.90
13123;DHT22;6627;50.920;12.050;2024-01-11T00:24:18;-10.00;99.90
13123;DHT22;6627;50.920;12.050;2024-01-11T00:26:46;-10.00;99.90
13123;DHT22;6627;50.920;12.050;2024-01-11T00:29:16;-9.90;99.90
13123;DHT22;6627;50.920;12.050;2024-01-11T00:31:45;-10.10;99.90
13123;DHT22;6627;50.920;12.050;2024-01-11T00:34:12;-10.30;99.90
13123;DHT22;6627;50.920;12.050;2024-01-11T00:36:41;-10.50;99.90
13123;DHT22;6627;50.920;12.050;2024-01-11T00:39:09;-10.50;99.90
13123;DHT22;6627;50.920;12.050;2024-01-11T00:41:37;-10.50;99.90
13123;DHT22;6627;50.920;12.050;2024-01-11T00:44:05;-10.50;99.90
13123;DHT22;6627;50.920;12.050;2024-01-11T00:46:35;-10.50;99.90
13123;DHT22;6627;50.920;12.050;2024-01-11T00:49:05;-10.50;99.90
13123;DHT22;6627;50.920;12.050;2024-01-11T00:51:35;-10.50;99.90
13123;DHT22;6627;50.920;12.050;2024-01-11T00:54:03;-10.40;99.90
13123;DHT22;6627;50.920;12.050;2024-01-11T00:56:33;-10.30;99.90
13123;DHT22;6627;50.920;12.050;2024-01-11T00:59:01;-10.30;99.90
13123;DHT22;6627;50.920;12.050;2024-01-11T01:01:30;-10.40;99.90
13123;DHT22;6627;50.920;12.050;2024-01-11T01:04:01;-10.30;99.90
13123;DHT22;6627;50.920;12.050;2024-01-11T01:06:31;-10.30;99.90
13123;DHT22;6627;50.920;12.050;2024-01-11T01:09:01;-10.20;99.90
13123;DHT22;6627;50.920;12.050;2024-01-11T01:11:29;-10.20;99.90
13123;DHT22;6627;50.920;12.050;2024-01-11T01:13:58;-10.10;99.90
13123;DHT22;6627;50.920;12.050;2024-01-11T01:16:26;-10.40;99.90
13123;DHT22;6627;50.920;12.050;2024-01-11T01:18:54;-10.60;99.90
13123;DHT22;6627;50.920;12.050;2024-01-11T01:21:23;-10.60;99.90
13123;DHT22;6627;50.920;12.050;2024-01-11T01:23:51;-10.70;99.90
13123;DHT22;6627;50.920;12.050;2024-01-11T01:26:19;-10.70;99.90
13123;DHT22;6627;50.920;12.050;2024-01-11T01:28:48;-10.70;99.90
13123;DHT22;6627;50.920;12.050;2024-01-11T01:31:16;-10.70;99.90
13123;DHT22;6627;50.920;12.050;2024-01-11T01:33:45;-10.60;99.90
13123;DHT22;6627;50.920;12.050;2024-01-11T01:36:15;-10.60;99.90
13123;DHT22;6627;50.920;12.050;2024-01-11T01:38:44;-10.60;99.90
13123;DHT22;6627;50.920;12.050;2024-01-11T01:41:11;-10.50;99.90
13123;DHT22;6627;50.920;12.050;2024-01-11T01:43:39;-10.40;99.90
13123;DHT22;6627;50.920;12.050;2024-01-11T01:46:07;-10.20;99.90
13123;DHT22;6627;50.920;12.050;2024-01-11T01:48:35;-10.10;99.90
13123;DHT22;6627;50.920;12.050;2024-01-11T01:51:06;-10.10;99.90
13123;DHT22;6627;50.920;12.050;2024-01-11T01:53:34;-10.00;99.90
13123;DHT22;6627;50.920;12.050;2024-01-11T01:56:04;-10.20;99.90
13123;DHT22;6627;50.920;12.050;2024-01-11T01:58:33;-10.10;99.90
13123;DHT22;6627;50.920;12.050;2024-01-11T02:01:04;-10.30;99.90
13123;DHT22;6627;50.920;12.050;2024-01-11T02:03:33;-10.50;99.90
13123;DHT22;6627;50.920;12.050;2024-01-11T02:06:05;-10.50;99.90
13123;DHT22;6627;50.920;12.050;2024-01-11T02:08:34;-10.60;99.90
13123;DHT22;6627;50.920;12.050;2024-01-11T02:11:08;-10.40;99.90
13123;DHT22;6627;50.920;12.050;2024-01-11T02:13:37;-10.40;99.90
13123;DHT22;6627;50.920;12.050;2024-01-11T02:16:05;-10.30;99.90
13123;DHT22;6627;50.920;12.050;2024-01-11T02:18:34;-10.50;99.90
13123;DHT22;6627;50.920;12.050;2024-01-11T02:21:03;-10.40;99.90
13123;DHT22;6627;50.920;12.050;2024-01-11T02:23:39;-10.40;99.90
13123;DHT22;6627;50.920;12.050;2024-01-11T02:26:14;-10.30;99.90
13123;DHT22;6627;50.920;12.050;2024-01-11T02:28:44;-10.30;99.90
13123;DHT22;6627;50.920;12.050;2024-01-11T02:31:12;-10.30;99.90
13123;DHT22;6627;50.920;12.050;2024-01-11T02:33:41;-8.80;99.90
13123;DHT22;6627;50.920;12.050;2024-01-11T02:36:15;-10.30;99.90
13123;DHT22;6627;50.920;12.050;2024-01-11T02:38:47;-10.40;99.90
13123;DHT22;6627;50.920;12.050;2024-01-11T02:41:34;-10.50;99.90
13123;DHT22;6627;50.920;12.050;2024-01-11T02:44:05;-10.40;99.90
13123;DHT22;6627;50.920;12.050;2024-01-11T02:46:32;-10.50;99.90
13123;DHT22;6627;50.920;12.050;2024-01-11T02:49:01;-10.80;99.90
13123;DHT22;6627;50.920;12.050;2024-01-11T02:51:29;-10.70;99.90
13123;DHT22;6627;50.920;12.050;2024-01-11T02:53:57;-10.60;99.90
13123;DHT22;6627;50.920;12.050;2024-01-11T02:56:25;-10.80;99.90
13123;DHT22;6627;50.920;12.050;2024-01-11T02:58:56;-10.90;99.90
13123;DHT22;6627;50.920;12.050;2024-01-11T03:01:24;-10.90;99.90
13123;DHT22;6627;50.920;12.050;2024-01-11T03:03:54;-10.90;99.90
13123;DHT22;6627;50.920;12.050;2024-01-11T03:06:24;-10.70;99.90
13123;DHT22;6627;50.920;12.050;2024-01-11T03:08:52;-10.70;99.90
13123;DHT22;6627;50.920;12.050;2024-01-11T03:11:22;-10.80;99.90
13123;DHT22;6627;50.920;12.050;2024-01-11T03:13:50;-10.80;99.90
13123;DHT22;6627;50.920;12.050;2024-01-11T03:16:20;-10.60;99.90
13123;DHT22;6627;50.920;12.050;2024-01-11T03:18:48;-10.60;99.90
13123;DHT22;6627;50.920;12.050;2024-01-11T03:21:15;-10.60;99.90
13123;DHT22;6627;50.920;12.050;2024-01-11T03:23:44;-10.60;99.90
13123;DHT22;6627;50.920;12.050;2024-01-11T03:26:14;-10.50;99.90
13123;DHT22;6627;50.920;12.050;2024-01-11T03:28:43;-10.80;99.90
13123;DHT22;6627;50.920;12.050;2024-01-11T03:31:11;-10.60;99.90
13123;DHT22;6627;50.920;12.050;2024-01-11T03:33:41;-10.70;99.90
13123;DHT22;6627;50.920;12.050;2024-01-11T03:36:10;-10.80;99.90
13123;DHT22;6627;50.920;12.050;2024-01-11T03:38:41;-10.80;99.90
13123;DHT22;6627;50.920;12.050;2024-01-11T03:41:10;-10.90;99.90
13123;DHT22;6627;50.920;12.050;2024-01-11T03:43:39;-10.90;99.90
13123;DHT22;6627;50.920;12.050;2024-01-11T03:46:06;-10.80;99.90
13123;DHT22;6627;50.920;12.050;2024-01-11T03:48:36;-10.70;99.90
13123;DHT22;6627;50.920;12.050;2024-01-11T03:51:05;-10.60;99.90
13123;DHT22;6627;50.920;12.050;2024-01-11T03:53:34;-10.80;99.90
13123;DHT22;6627;50.920;12.050;2024-01-11T03:56:05;-10.90;99.90
13123;DHT22;6627;50.920;12.050;2024-01-11T03:58:35;-10.90;99.90
13123;DHT22;6627;50.920;12.050;2024-01-11T04:01:05;-10.90;99.90
13123;DHT22;6627;50.920;12.050;2024-01-11T04:03:37;-10.80;99.90
13123;DHT22;6627;50.920;12.050;2024-01-11T04:06:07;-10.70;99.90
13123;DHT22;6627;50.920;12.050;2024-01-11T04:08:34;-10.50;99.90
13123;DHT22;6627;50.920;12.050;2024-01-11T04:11:02;-10.60;99.90
13123;DHT22;6627;50.920;12.050;2024-01-11T04:13:31;-10.50;99.90
13123;DHT22;6627;50.920;12.050;2024-01-11T04:16:03;-10.30;99.90
13123;DHT22;6627;50.920;12.050;2024-01-11T04:18:31;-10.50;99.90
13123;DHT22;6627;50.920;12.050;2024-01-11T04:21:00;-10.50;99.90
13123;DHT22;6627;50.920;12.050;2024-01-11T04:23:29;-10.50;99.90
13123;DHT22;6627;50.920;12.050;2024-01-11T04:25:58;-10.50;99.90
13123;DHT22;6627;50.920;12.050;2024-01-11T04:28:26;-10.30;99.90
13123;DHT22;6627;50.920;12.050;2024-01-11T04:30:55;-10.40;99.90
13123;DHT22;6627;50.920;12.050;2024-01-11T04:33:22;-10.30;99.90
13123;DHT22;6627;50.920;12.050;2024-01-11T04:36:05;-10.20;99.90
13123;DHT22;6627;50.920;12.050;2024-01-11T04:38:38;-10.10;99.90
13123;DHT22;6627;50.920;12.050;2024-01-11T04:41:08;-10.10;99.90
13123;DHT22;6627;50.920;12.050;2024-01-11T04:43:38;-10.10;99.90
13123;DHT22;6627;50.920;12.050;2024-01-11T04:46:13;-10.10;99.90
13123;DHT22;6627;50.920;12.050;2024-01-11T04:48:41;-10.10;99.90
13123;DHT22;6627;50.920;12.050;2024-01-11T04:51:13;-10.10;99.90
13123;DHT22;6627;50.920;12.050;2024-01-11T04:53:45;-10.00;99.90
13123;DHT22;6627;50.920;12.050;2024-01-11T04:56:14;-9.90;99.90
13123;DHT22;6627;50.920;12.050;2024-01-11T04:58:44;-9.80;99.90
13123;DHT22;6627;50.920;12.050;2024-01-11T05:01:13;-10.00;99.90
13123;DHT22;6627;50.920;12.050;2024-01-11T05:03:41;-9.80;99.90
13123;DHT22;6627;50.920;12.050;2024-01-11T05:06:15;-9.80;99.90
13123;DHT22;6627;50.920;12.050;2024-01-11T05:08:44;-9.80;99.90
13123;DHT22;6627;50.920;12.050;2024-01-11T05:11:16;-9.80;99.90
13123;DHT22;6627;50.920;12.050;2024-01-11T05:13:44;-9.80;99.90
13123;DHT22;6627;50.920;12.050;2024-01-11T05:16:21;-9.80;99.90
13123;DHT22;6627;50.920;12.050;2024-01-11T05:18:53;-10.10;99.90
13123;DHT22;6627;50.920;12.050;2024-01-11T05:21:26;-10.00;99.90
13123;DHT22;6627;50.920;12.050;2024-01-11T05:23:55;-9.90;99.90
13123;DHT22;6627;50.920;12.050;2024-01-11T05:26:23;-10.00;99.90
13123;DHT22;6627;50.920;12.050;2024-01-11T05:28:51;-10.10;99.90
13123;DHT22;6627;50.920;12.050;2024-01-11T05:31:19;-10.10;99.90
13123;DHT22;6627;50.920;12.050;2024-01-11T05:33:49;-10.30;99.90
13123;DHT22;6627;50.920;12.050;2024-01-11T05:36:17;-10.30;99.90
13123;DHT22;6627;50.920;12.050;2024-01-11T05:38:45;-10.40;99.90
13123;DHT22;6627;50.920;12.050;2024-01-11T05:41:15;-10.30;99.90
13123;DHT22;6627;50.920;12.050;2024-01-11T05:43:46;-10.20;99.90
13123;DHT22;6627;50.920;12.050;2024-01-11T05:46:14;-10.30;99.90
13123;DHT22;6627;50.920;12.050;2024-01-11T05:48:44;-10.30;99.90
13123;DHT22;6627;50.920;12.050;2024-01-11T05:51:11;-10.60;99.90
13123;DHT22;6627;50.920;12.050;2024-01-11T05:53:41;-10.70;99.90
13123;DHT22;6627;50.920;12.050;2024-01-11T05:56:09;-10.70;99.90
13123;DHT22;6627;50.920;12.050;2024-01-11T05:58:40;-10.60;99.90
13123;DHT22;6627;50.920;12.050;2024-01-11T06:01:11;-10.60;99.90
13123;DHT22;6627;50.920;12.050;2024-01-11T06:03:38;-10.60;99.90
13123;DHT22;6627;50.920;12.050;2024-01-11T06:06:09;-10.60;99.90
13123;DHT22;6627;50.920;12.050;2024-01-11T06:08:38;-10.50;99.90
13123;DHT22;6627;50.920;12.050;2024-01-11T06:11:06;-10.40;99.90
13123;DHT22;6627;50.920;12.050;2024-01-11T06:13:34;-10.40;99.90
13123;DHT22;6627;50.920;12.050;2024-01-11T06:16:03;-10.30;99.90
13123;DHT22;6627;50.920;12.050;2024-01-11T06:18:32;-10.30;99.90
13123;DHT22;6627;50.920;12.050;2024-01-11T06:21:00;-10.10;99.90
13123;DHT22;6627;50.920;12.050;2024-01-11T06:23:28;-10.20;99.90
13123;DHT22;6627;50.920;12.050;2024-01-11T06:25:56;-10.20;99.90
13123;DHT22;6627;50.920;12.050;2024-01-11T06:28:24;-10.20;99.90
13123;DHT22;6627;50.920;12.050;2024-01-11T06:30:53;-10.10;99.90
13123;DHT22;6627;50.920;12.050;2024-01-11T06:33:23;-10.00;99.90
13123;DHT22;6627;50.920;12.050;2024-01-11T06:35:51;-10.00;99.90
13123;DHT22;6627;50.920;12.050;2024-01-11T06:38:20;-10.00;99.90
13123;DHT22;6627;50.920;12.050;2024-01-11T06:40:48;-10.00;99.90
13123;DHT22;6627;50.920;12.050;2024-01-11T06:43:21;-10.00;99.90
13123;DHT22;6627;50.920;12.050;2024-01-11T06:45:50;-10.10;99.90
13123;DHT22;6627;50.920;12.050;2024-01-11T06:48:19;-10.10;99.90
13123;DHT22;6627;50.920;12.050;2024-01-11T06:50:48;-10.40;99.90
13123;DHT22;6627;50.920;12.050;2024-01-11T06:53:17;-10.30;99.90
13123;DHT22;6627;50.920;12.050;2024-01-11T06:55:50;-10.10;99.90
13123;DHT22;6627;50.920;12.050;2024-01-11T06:58:22;-10.00;99.90
13123;DHT22;6627;50.920;12.050;2024-01-11T07:00:49;-10.20;99.90
13123;DHT22;6627;50.920;12.050;2024-01-11T07:03:19;-10.20;99.90
13123;DHT22;6627;50.920;12.050;2024-01-11T07:05:49;-10.10;99.90
13123;DHT22;6627;50.920;12.050;2024-01-11T07:08:17;-10.10;99.90
13123;DHT22;6627;50.920;12.050;2024-01-11T07:10:45;-10.20;99.90
13123;DHT22;6627;50.920;12.050;2024-01-11T07:13:13;-10.10;99.90
13123;DHT22;6627;50.920;12.050;2024-01-11T07:15:46;-10.30;99.90
13123;DHT22;6627;50.920;12.050;2024-01-11T07:18:15;-10.30;99.90
13123;DHT22;6627;50.920;12.050;2024-01-11T07:20:44;-10.10;99.90
13123;DHT22;6627;50.920;12.050;2024-01-11T07:23:13;-10.10;99.90
13123;DHT22;6627;50.920;12.050;2024-01-11T07:25:42;-10.20;99.90
13123;DHT22;6627;50.920;12.050;2024-01-11T07:28:14;-10.30;99.90
13123;DHT22;6627;50.920;12.050;2024-01-11T07:30:43;-10.30;99.90
13123;DHT22;6627;50.920;12.050;2024-01-11T07:33:13;-10.10;99.90
13123;DHT22;6627;50.920;12.050;2024-01-11T07:35:42;-10.10;99.90
13123;DHT22;6627;50.920;12.050;2024-01-11T07:38:14;-10.10;99.90
13123;DHT22;6627;50.920;12.050;2024-01-11T07:40:43;-10.00;99.90
13123;DHT22;6627;50.920;12.050;2024-01-11T07:43:11;-9.80;99.90
13123;DHT22;6627;50.920;12.050;2024-01-11T07:45:41;-9.60;99.90
13123;DHT22;6627;50.920;12.050;2024-01-11T07:48:13;-9.50;99.90
13123;DHT22;6627;50.920;12.050;2024-01-11T07:50:40;-9.50;99.90
13123;DHT22;6627;50.920;12.050;2024-01-11T07:53:09;-9.40;99.90
13123;DHT22;6627;50.920;12.050;2024-01-11T07:55:38;-9.30;99.90
13123;DHT22;6627;50.920;12.050;2024-01-11T07:58:07;-9.10;99.90
13123;DHT22;6627;50.920;12.050;2024-01-11T08:00:34;-9.10;99.90
13123;DHT22;6627;50.920;12.050;2024-01-11T08:03:03;-9.10;99.90
13123;DHT22;6627;50.920;12.050;2024-01-11T08:05:31;-9.00;99.90
13123;DHT22;6627;50.920;12.050;2024-01-11T08:08:00;-8.90;99.90
13123;DHT22;6627;50.920;12.050;2024-01-11T08:10:29;-8.90;99.90
13123;DHT22;6627;50.920;12.050;2024-01-11T08:13:00;-8.80;99.90
13123;DHT22;6627;50.920;12.050;2024-01-11T08:15:30;-8.70;99.90
13123;DHT22;6627;50.920;12.050;2024-01-11T08:17:57;-8.60;99.90
13123;DHT22;6627;50.920;12.050;2024-01-11T08:20:27;-8.50;99.90
13123;DHT22;6627;50.920;12.050;2024-01-11T08:22:56;-8.60;99.90
13123;DHT22;6627;50.920;12.050;2024-01-11T08:25:24;-8.70;99.90
13123;DHT22;6627;50.920;12.050;2024-01-11T08:27:52;-8.70;99.90
13123;DHT22;6627;50.920;12.050;2024-01-11T08:30:23;-8.80;99.90
13123;DHT22;6627;50.920;12.050;2024-01-11T08:32:57;-8.60;99.90
13123;DHT22;6627;50.920;12.050;2024-01-11T08:35:28;-8.50;99.90
13123;DHT22;6627;50.920;12.050;2024-01-11T08:37:56;-8.60;99.90
13123;DHT22;6627;50.920;12.050;2024-01-11T08:40:25;-8.50;99.90
13123;DHT22;6627;50.920;12.050;2024-01-11T08:42:53;-8.40;99.90
13123;DHT22;6627;50.920;12.050;2024-01-11T08:45:23;-8.40;99.90
13123;DHT22;6627;50.920;12.050;2024-01-11T08:47:51;-8.30;99.90
13123;DHT22;6627;50.920;12.050;2024-01-11T08:50:19;-8.30;99.90
13123;DHT22;6627;50.920;12.050;2024-01-11T08:52:48;-8.20;99.90
13123;DHT22;6627;50.920;12.050;2024-01-11T08:55:17;-8.10;99.90
13123;DHT22;6627;50.920;12.050;2024-01-11T08:57:44;-8.10;99.90
13123;DHT22;6627;50.920;12.050;2024-01-11T09:00:26;-8.00;99.90
13123;DHT22;6627;50.920;12.050;2024-01-11T09:02:57;-7.90;99.90
13123;DHT22;6627;50.920;12.050;2024-01-11T09:05:25;-7.70;99.90
13123;DHT22;6627;50.920;12.050;2024-01-11T09:07:54;-7.60;99.90
13123;DHT22;6627;50.920;12.050;2024-01-11T09:10:22;-7.60;99.90
13123;DHT22;6627;50.920;12.050;2024-01-11T09:12:52;-7.50;99.90
13123;DHT22;6627;50.920;12.050;2024-01-11T09:15:20;-7.40;99.90
13123;DHT22;6627;50.920;12.050;2024-01-11T09:17:49;-7.40;99.90
13123;DHT22;6627;50.920;12.050;2024-01-11T09:20:17;-7.20;99.90
13123;DHT22;6627;50.920;12.050;2024-01-11T09:22:46;-7.10;99.90
13123;DHT22;6627;50.920;12.050;2024-01-11T09:25:15;-7.10;99.90
13123;DHT22;6627;50.920;12.050;2024-01-11T09:27:43;-7.00;99.90
13123;DHT22;6627;50.920;12.050;2024-01-11T09:30:12;-6.80;99.90
13123;DHT22;6627;50.920;12.050;2024-01-11T09:32:40;-6.80;99.90
13123;DHT22;6627;50.920;12.050;2024-01-11T09:35:09;-6.70;99.90
13123;DHT22;6627;50.920;12.050;2024-01-11T09:37:37;-6.60;99.90
13123;DHT22;6627;50.920;12.050;2024-01-11T09:40:07;-6.50;99.90
13123;DHT22;6627;50.920;12.050;2024-01-11T09:42:37;-6.50;99.90
13123;DHT22;6627;50.920;12.050;2024-01-11T09:45:08;-6.50;99.90
13123;DHT22;6627;50.920;12.050;2024-01-11T09:47:39;-6.40;99.90
13123;DHT22;6627;50.920;12.050;2024-01-11T09:50:18;-6.30;99.90
13123;DHT22;6627;50.920;12.050;2024-01-11T09:52:49;-6.20;99.90
13123;DHT22;6627;50.920;12.050;2024-01-11T09:55:18;-6.10;99.90
13123;DHT22;6627;50.920;12.050;2024-01-11T09:57:52;-6.10;99.90
13123;DHT22;6627;50.920;12.050;2024-01-11T10:00:24;-6.10;99.90
13123;DHT22;6627;50.920;12.050;2024-01-11T10:02:56;-6.00;99.90
13123;DHT22;6627;50.920;12.050;2024-01-11T10:05:26;-5.80;99.90
13123;DHT22;6627;50.920;12.050;2024-01-11T10:07:56;-5.80;99.90
13123;DHT22;6627;50.920;12.050;2024-01-11T10:10:25;-5.70;99.90
13123;DHT22;6627;50.920;12.050;2024-01-11T10:12:53;-5.60;99.90
13123;DHT22;6627;50.920;12.050;2024-01-11T10:15:24;-5.60;99.90
13123;DHT22;6627;50.920;12.050;2024-01-11T10:17:53;-5.60;99.90
13123;DHT22;6627;50.920;12.050;2024-01-11T10:20:23;-5.50;99.90
13123;DHT22;6627;50.920;12.050;2024-01-11T10:22:52;-5.40;99.90
13123;DHT22;6627;50.920;12.050;2024-01-11T10:25:20;-5.30;99.90
13123;DHT22;6627;50.920;12.050;2024-01-11T10:27:52;-5.10;99.90
13123;DHT22;6627;50.920;12.050;2024-01-11T10:30:20;-5.00;99.90
13123;DHT22;6627;50.920;12.050;2024-01-11T10:32:51;-4.90;99.90
13123;DHT22;6627;50.920;12.050;2024-01-11T10:35:18;-4.80;99.90
13123;DHT22;6627;50.920;12.050;2024-01-11T10:37:52;-4.70;99.90
13123;DHT22;6627;50.920;12.050;2024-01-11T10:40:21;-4.60;99.90
13123;DHT22;6627;50.920;12.050;2024-01-11T10:42:52;-4.50;99.90
13123;DHT22;6627;50.920;12.050;2024-01-11T10:45:21;-4.40;99.90
13123;DHT22;6627;50.920;12.050;2024-01-11T10:48:13;-4.20;99.90
13123;DHT22;6627;50.920;12.050;2024-01-11T10:51:01;-4.10;99.90
13123;DHT22;6627;50.920;12.050;2024-01-11T10:53:55;-4.10;99.90
13123;DHT22;6627;50.920;12.050;2024-01-11T10:56:24;-3.90;99.90
13123;DHT22;6627;50.920;12.050;2024-01-11T10:58:55;-3.70;99.90
13123;DHT22;6627;50.920;12.050;2024-01-11T11:01:25;-3.70;99.90
13123;DHT22;6627;50.920;12.050;2024-01-11T11:03:54;-3.70;99.90
13123;DHT22;6627;50.920;12.050;2024-01-11T11:06:27;-3.60;99.90
13123;DHT22;6627;50.920;12.050;2024-01-11T11:08:57;-3.50;99.90
13123;DHT22;6627;50.920;12.050;2024-01-11T11:11:26;-3.50;99.90
13123;DHT22;6627;50.920;12.050;2024-01-11T11:13:57;-3.40;99.90
13123;DHT22;6627;50.920;12.050;2024-01-11T11:16:29;-3.30;99.90
13123;DHT22;6627;50.920;12.050;2024-01-11T11:18:57;-3.20;99.90
13123;DHT22;6627;50.920;12.050;2024-01-11T11:21:26;-3.00;99.90
13123;DHT22;6627;50.920;12.050;2024-01-11T11:23:56;-3.00;99.90
13123;DHT22;6627;50.920;12.050;2024-01-11T11:34:39;-2.50;99.90
13123;DHT22;6627;50.920;12.050;2024-01-11T11:37:09;-2.60;99.90
13123;DHT22;6627;50.920;12.050;2024-01-11T11:39:41;-2.40;99.90
13123;DHT22;6627;50.920;12.050;2024-01-11T11:42:11;-2.10;99.90
13123;DHT22;6627;50.920;12.050;2024-01-11T11:44:48;-2.10;99.90
13123;DHT22;6627;50.920;12.050;2024-01-11T11:47:19;-1.70;99.90
13123;DHT22;6627;50.920;12.050;2024-01-11T11:50:06;-1.80;99.90
13123;DHT22;6627;50.920;12.050;2024-01-11T11:52:38;-2.00;99.90
13123;DHT22;6627;50.920;12.050;2024-01-11T11:55:08;-1.90;99.90
13123;DHT22;6627;50.920;12.050;2024-01-11T11:57:37;-1.70;99.90
13123;DHT22;6627;50.920;12.050;2024-01-11T12:00:06;-1.70;99.90
13123;DHT22;6627;50.920;12.050;2024-01-11T12:02:39;-1.70;99.90
13123;DHT22;6627;50.920;12.050;2024-01-11T12:05:09;-1.50;99.90
13123;DHT22;6627;50.920;12.050;2024-01-11T12:07:56;-1.60;99.90
13123;DHT22;6627;50.920;12.050;2024-01-11T12:10:26;-1.50;99.90
13123;DHT22;6627;50.920;12.050;2024-01-11T12:12:54;-1.40;99.90
13123;DHT22;6627;50.920;12.050;2024-01-11T12:15:26;-1.20;99.90
13123;DHT22;6627;50.920;12.050;2024-01-11T12:17:57;-1.20;99.90
13123;DHT22;6627;50.920;12.050;2024-01-11T12:20:32;-1.10;99.90
13123;DHT22;6627;50.920;12.050;2024-01-11T12:23:08;-1.00;99.90
13123;DHT22;6627;50.920;12.050;2024-01-11T12:25:38;-1.00;99.90
13123;DHT22;6627;50.920;12.050;2024-01-11T12:28:10;-0.90;99.90
13123;DHT22;6627;50.920;12.050;2024-01-11T12:30:38;-0.70;99.90
13123;DHT22;6627;50.920;12.050;2024-01-11T12:33:15;-0.70;99.90
13123;DHT22;6627;50.920;12.050;2024-01-11T12:35:44;-0.60;99.90
13123;DHT22;6627;50.920;12.050;2024-01-11T12:38:16;-0.70;99.90
13123;DHT22;6627;50.920;12.050;2024-01-11T12:40:46;-0.50;99.90
13123;DHT22;6627;50.920;12.050;2024-01-11T12:43:15;-0.40;99.90
13123;DHT22;6627;50.920;12.050;2024-01-11T12:45:45;-0.30;99.90
13123;DHT22;6627;50.920;12.050;2024-01-11T12:48:13;0.00;99.90
13123;DHT22;6627;50.920;12.050;2024-01-11T12:50:42;0.10;99.90
13123;DHT22;6627;50.920;12.050;2024-01-11T12:53:11;0.20;99.90
13123;DHT22;6627;50.920;12.050;2024-01-11T12:55:45;0.20;99.90
13123;DHT22;6627;50.920;12.050;2024-01-11T12:58:13;0.30;99.90
13123;DHT22;6627;50.920;12.050;2024-01-11T13:00:46;0.30;99.90
13123;DHT22;6627;50.920;12.050;2024-01-11T13:03:15;0.30;99.90
13123;DHT22;6627;50.920;12.050;2024-01-11T13:05:45;0.20;99.90
13123;DHT22;6627;50.920;12.050;2024-01-11T13:08:13;0.10;99.90
13123;DHT22;6627;50.920;12.050;2024-01-11T13:10:41;0.00;99.90
13123;DHT22;6627;50.920;12.050;2024-01-11T13:13:10;-0.10;99.90
13123;DHT22;6627;50.920;12.050;2024-01-11T13:15:37;0.00;99.90
13123;DHT22;6627;50.920;12.050;2024-01-11T13:18:06;-0.10;99.90
13123;DHT22;6627;50.920;12.050;2024-01-11T13:20:53;-0.10;99.90
13123;DHT22;6627;50.920;12.050;2024-01-11T13:23:20;-0.10;99.90
13123;DHT22;6627;50.920;12.050;2024-01-11T13:25:49;-0.10;99.90
13123;DHT22;6627;50.920;12.050;2024-01-11T13:28:22;-0.20;99.90
13123;DHT22;6627;50.920;12.050;2024-01-11T13:30:49;-0.10;99.90
13123;DHT22;6627;50.920;12.050;2024-01-11T13:33:17;-0.10;99.90
13123;DHT22;6627;50.920;12.050;2024-01-11T13:38:15;-0.10;99.90
13123;DHT22;6627;50.920;12.050;2024-01-11T13:40:43;-0.10;99.90
13123;DHT22;6627;50.920;12.050;2024-01-11T13:43:16;-0.10;99.90
13123;DHT22;6627;50.920;12.050;2024-01-11T13:45:45;-0.20;99.90
13123;DHT22;6627;50.920;12.050;2024-01-11T13:48:13;-0.20;99.90
13123;DHT22;6627;50.920;12.050;2024-01-11T13:50:43;-0.20;99.90
13123;DHT22;6627;50.920;12.050;2024-01-11T13:53:22;-0.20;99.90
13123;DHT22;6627;50.920;12.050;2024-01-11T13:55:50;-0.20;94.90
13123;DHT22;6627;50.920;12.050;2024-01-11T13:58:17;-0.20;66.30
13123;DHT22;6627;50.920;12.050;2024-01-11T14:00:47;-0.20;28.90
13123;DHT22;6627;50.920;12.050;2024-01-11T14:03:16;0.00;63.30
13123;DHT22;6627;50.920;12.050;2024-01-11T14:06:03;0.10;93.70
13123;DHT22;6627;50.920;12.050;2024-01-11T14:08:32;0.20;74.10
13123;DHT22;6627;50.920;12.050;2024-01-11T14:11:00;0.20;14.50
13123;DHT22;6627;50.920;12.050;2024-01-11T14:13:29;0.20;26.40
13123;DHT22;6627;50.920;12.050;2024-01-11T14:15:58;0.30;25.00
13123;DHT22;6627;50.920;12.050;2024-01-11T14:18:39;0.20;1.00
13123;DHT22;6627;50.920;12.050;2024-01-11T14:21:09;0.20;1.00
13123;DHT22;6627;50.920;12.050;2024-01-11T14:23:38;0.20;1.00
13123;DHT22;6627;50.920;12.050;2024-01-11T14:26:06;0.20;1.00
13123;DHT22;6627;50.920;12.050;2024-01-11T14:28:34;0.20;1.00
13123;DHT22;6627;50.920;12.050;2024-01-11T14:31:06;0.10;1.00
13123;DHT22;6627;50.920;12.050;2024-01-11T14:33:33;0.00;1.00
13123;DHT22;6627;50.920;12.050;2024-01-11T14:36:03;0.00;1.00
13123;DHT22;6627;50.920;12.050;2024-01-11T14:38:34;-0.10;1.00
13123;DHT22;6627;50.920;12.050;2024-01-11T14:41:03;-0.10;1.00
13123;DHT22;6627;50.920;12.050;2024-01-11T14:43:31;-0.30;1.00
13123;DHT22;6627;50.920;12.050;2024-01-11T14:46:00;-0.40;1.00
13123;DHT22;6627;50.920;12.050;2024-01-11T14:48:29;-0.70;99.90
13123;DHT22;6627;50.920;12.050;2024-01-11T14:51:01;-0.70;99.90
13123;DHT22;6627;50.920;12.050;2024-01-11T14:53:29;-0.70;99.90
13123;DHT22;6627;50.920;12.050;2024-01-11T14:55:59;-0.70;48.00
13123;DHT22;6627;50.920;12.050;2024-01-11T14:58:46;-0.70;94.40
13123;DHT22;6627;50.920;12.050;2024-01-11T15:01:16;-0.70;84.20
13123;DHT22;6627;50.920;12.050;2024-01-11T15:03:47;-0.80;1.00
13123;DHT22;6627;50.920;12.050;2024-01-11T15:06:26;-0.90;1.00
13123;DHT22;6627;50.920;12.050;2024-01-11T15:08:57;-1.00;1.00
13123;DHT22;6627;50.920;12.050;2024-01-11T15:11:26;-1.00;1.00
13123;DHT22;6627;50.920;12.050;2024-01-11T15:13:54;-1.00;1.00
13123;DHT22;6627;50.920;12.050;2024-01-11T15:16:29;-1.10;1.00
13123;DHT22;6627;50.920;12.050;2024-01-11T15:18:59;-1.10;1.00
13123;DHT22;6627;50.920;12.050;2024-01-11T15:21:27;-1.20;1.00
13123;DHT22;6627;50.920;12.050;2024-01-11T15:24:14;-1.20;1.00
13123;DHT22;6627;50.920;12.050;2024-01-11T15:26:45;-1.20;1.00
13123;DHT22;6627;50.920;12.050;2024-01-11T15:29:16;-1.30;1.00
13123;DHT22;6627;50.920;12.050;2024-01-11T15:31:43;-1.30;1.00
13123;DHT22;6627;50.920;12.050;2024-01-11T15:34:14;-1.30;1.00
13123;DHT22;6627;50.920;12.050;2024-01-11T15:36:42;-1.30;1.00
13123;DHT22;6627;50.920;12.050;2024-01-11T15:39:20;-1.40;1.00
13123;DHT22;6627;50.920;12.050;2024-01-11T15:42:01;-1.50;1.00
13123;DHT22;6627;50.920;12.050;2024-01-11T15:44:30;-1.50;1.00
13123;DHT22;6627;50.920;12.050;2024-01-11T15:47:01;-1.50;1.00
13123;DHT22;6627;50.920;12.050;2024-01-11T15:49:40;-1.70;1.00
13123;DHT22;6627;50.920;12.050;2024-01-11T16:10:07;-1.90;99.90
13123;DHT22;6627;50.920;12.050;2024-01-11T16:12:37;-1.90;99.90